^^
Atglen Borough Weather Station Historical Data
 
Daily Summary for January 16, 2019 Units:  English    Metric   Both
Daily Weekly Monthly Yearly Custom
  Current: High: Low: Average:
Temperature: 26.1 °F 26.1 °F 14.5 °F 17.1 °F
Dew Point: 23.7 °F 23.7 °F 12.6 °F 15.3 °F
Humidity: 91% 93% 91% 93%
Wind Speed: 0.9mph 0.9mph 0.0mph 0.1mph
Wind Gust: 3.0mph 3.0mph - -
WindSSW - - WNW
Pressure: 30.09 in 30.13 in 30.08 in -
Precipitation: 0.00 in      
Historical Graphs
 
 
Tabular Data for January 16, 2019
Time Temperature Dew Point Pressure Wind Wind Speed Wind Gust Humidity Rainfall Rate (Hourly)
00:04 16.3 °F 14.4 °F 30.13 in Calm     92% 0.00 in
00:09 16.3 °F 14.4 °F 30.13 in Calm   1.0 mph 92% 0.00 in
00:14 16.3 °F 14.4 °F 30.13 in Calm     92% 0.00 in
00:19 16.2 °F 14.2 °F 30.13 in Calm     92% 0.00 in
00:24 16.2 °F 14.2 °F 30.13 in Calm     92% 0.00 in
00:29 16.0 °F 14.0 °F 30.13 in Calm   1.0 mph 92% 0.00 in
00:34 15.8 °F 14.2 °F 30.12 in Calm     93% 0.00 in
00:39 15.8 °F 14.2 °F 30.11 in Calm     93% 0.00 in
00:44 15.6 °F 13.6 °F 30.11 in Calm     92% 0.00 in
00:49 15.8 °F 14.2 °F 30.12 in Calm   1.0 mph 93% 0.00 in
00:54 15.8 °F 14.2 °F 30.12 in Calm   1.0 mph 93% 0.00 in
00:59 15.6 °F 13.6 °F 30.11 in Calm     92% 0.00 in
01:04 15.6 °F 14.0 °F 30.11 in Calm   1.0 mph 93% 0.00 in
01:09 15.6 °F 14.0 °F 30.11 in Calm     93% 0.00 in
01:14 15.8 °F 14.2 °F 30.11 in Calm   1.0 mph 93% 0.00 in
01:19 16.0 °F 14.4 °F 30.11 in Calm   1.0 mph 93% 0.00 in
01:24 16.0 °F 14.4 °F 30.11 in WNW 0.9 mph 1.0 mph 93% 0.00 in
01:29 15.6 °F 14.0 °F 30.11 in Calm     93% 0.00 in
01:34 15.4 °F 13.8 °F 30.11 in Calm   1.0 mph 93% 0.00 in
01:39 15.3 °F 13.6 °F 30.11 in Calm     93% 0.00 in
01:44 15.3 °F 13.3 °F 30.11 in Calm     92% 0.00 in
01:49 15.3 °F 13.6 °F 30.11 in Calm     93% 0.00 in
01:54 15.3 °F 13.6 °F 30.11 in Calm   1.0 mph 93% 0.00 in
01:59 15.4 °F 13.8 °F 30.11 in Calm     93% 0.00 in
02:04 15.4 °F 13.8 °F 30.11 in Calm   1.0 mph 93% 0.00 in
02:09 15.3 °F 13.3 °F 30.11 in Calm   1.0 mph 92% 0.00 in
02:14 15.1 °F 13.5 °F 30.11 in WNW 0.9 mph 1.0 mph 93% 0.00 in
02:19 14.9 °F 12.9 °F 30.11 in Calm     92% 0.00 in
02:24 14.7 °F 12.7 °F 30.11 in Calm     92% 0.00 in
02:29 14.9 °F 12.9 °F 30.11 in Calm     92% 0.00 in
02:34 14.7 °F 12.7 °F 30.11 in Calm     92% 0.00 in
02:39 14.7 °F 12.7 °F 30.11 in Calm     92% 0.00 in
02:44 14.7 °F 12.7 °F 30.11 in Calm     92% 0.00 in
02:49 14.7 °F 12.7 °F 30.11 in Calm     92% 0.00 in
02:54 14.7 °F 12.7 °F 30.11 in Calm   1.0 mph 92% 0.00 in
02:59 14.5 °F 12.6 °F 30.10 in Calm     92% 0.00 in
03:04 14.5 °F 12.6 °F 30.11 in Calm     92% 0.00 in
03:09 14.5 °F 12.6 °F 30.11 in Calm     92% 0.00 in
03:14 14.5 °F 12.6 °F 30.11 in Calm     92% 0.00 in
03:19 14.7 °F 12.7 °F 30.10 in Calm     92% 0.00 in
03:24 14.7 °F 12.7 °F 30.10 in Calm     92% 0.00 in
03:29 14.7 °F 12.7 °F 30.10 in Calm     92% 0.00 in
03:34 14.9 °F 13.3 °F 30.10 in Calm     93% 0.00 in
03:39 15.3 °F 13.6 °F 30.09 in Calm     93% 0.00 in
03:44 15.4 °F 13.8 °F 30.09 in Calm   1.0 mph 93% 0.00 in
03:49 15.6 °F 14.0 °F 30.09 in Calm     93% 0.00 in
03:54 16.0 °F 14.4 °F 30.09 in Calm     93% 0.00 in
03:59 16.0 °F 14.4 °F 30.09 in Calm     93% 0.00 in
04:04 16.2 °F 14.2 °F 30.09 in Calm     92% 0.00 in
04:09 16.2 °F 14.2 °F 30.09 in WNW 0.9 mph 1.0 mph 92% 0.00 in
04:14 16.3 °F 14.4 °F 30.09 in Calm     92% 0.00 in
04:19 16.3 °F 14.4 °F 30.09 in Calm     92% 0.00 in
04:24 16.5 °F 14.5 °F 30.09 in Calm   1.0 mph 92% 0.00 in
04:29 17.1 °F 15.4 °F 30.08 in WNW 0.9 mph 1.0 mph 93% 0.00 in
04:34 17.6 °F 16.0 °F 30.08 in Calm   2.0 mph 93% 0.00 in
04:39 18.3 °F 16.7 °F 30.09 in WNW 0.9 mph 2.0 mph 93% 0.00 in
04:44 19.0 °F 17.4 °F 30.08 in WNW 0.9 mph 2.0 mph 93% 0.00 in
04:49 19.9 °F 18.3 °F 30.08 in Calm   1.0 mph 93% 0.00 in
04:54 20.7 °F 19.0 °F 30.08 in Calm   1.0 mph 93% 0.00 in
04:59 21.0 °F 19.4 °F 30.08 in Calm   1.0 mph 93% 0.00 in
05:04 21.4 °F 19.4 °F 30.08 in Calm   1.0 mph 92% 0.00 in
05:09 21.7 °F 20.1 °F 30.08 in Calm   1.0 mph 93% 0.00 in
05:14 22.3 °F 20.5 °F 30.08 in Calm   2.0 mph 93% 0.00 in
05:19 22.8 °F 21.0 °F 30.08 in Calm   3.0 mph 93% 0.00 in
05:24 23.5 °F 21.7 °F 30.08 in West 0.9 mph 3.0 mph 93% 0.00 in
05:29 23.7 °F 21.7 °F 30.09 in Calm   2.0 mph 92% 0.00 in
05:34 24.1 °F 22.1 °F 30.08 in WNW 0.9 mph 2.0 mph 92% 0.00 in
05:39 24.4 °F 22.5 °F 30.08 in Calm     92% 0.00 in
05:44 25.0 °F 23.0 °F 30.09 in WNW 0.9 mph 1.0 mph 92% 0.00 in
05:49 25.5 °F 23.5 °F 30.08 in WNW 0.9 mph 2.0 mph 92% 0.00 in
05:54 26.1 °F 23.7 °F 30.09 in SSW 0.9 mph 3.0 mph 91% 0.00 in
Atglen Borough Observatory, Pennsylvania, USA
Compliments of Weather Underground - 2.25 mb